sensor_id;sensor_type;location;lat;lon;timestamp;temperature;humidity
2783;DHT22;1399;47.072;15.452;2023-09-19T00:01:08;19.90;99.90
2783;DHT22;1399;47.072;15.452;2023-09-19T00:03:35;19.90;99.90
2783;DHT22;1399;47.072;15.452;2023-09-19T00:06:04;19.90;99.90
2783;DHT22;1399;47.072;15.452;2023-09-19T00:08:31;19.90;99.90
2783;DHT22;1399;47.072;15.452;2023-09-19T00:10:56;19.80;99.90
2783;DHT22;1399;47.072;15.452;2023-09-19T00:13:27;19.90;99.90
2783;DHT22;1399;47.072;15.452;2023-09-19T00:15:54;19.90;99.90
2783;DHT22;1399;47.072;15.452;2023-09-19T00:18:21;19.80;99.90
2783;DHT22;1399;47.072;15.452;2023-09-19T00:20:47;19.90;99.90
2783;DHT22;1399;47.072;15.452;2023-09-19T00:23:14;19.80;99.90
2783;DHT22;1399;47.072;15.452;2023-09-19T00:25:40;19.90;99.90
2783;DHT22;1399;47.072;15.452;2023-09-19T00:28:07;19.90;99.90
2783;DHT22;1399;47.072;15.452;2023-09-19T00:30:34;19.80;99.90
2783;DHT22;1399;47.072;15.452;2023-09-19T00:33:00;19.80;99.90
2783;DHT22;1399;47.072;15.452;2023-09-19T00:35:26;19.80;99.90
2783;DHT22;1399;47.072;15.452;2023-09-19T00:37:53;19.80;99.90
2783;DHT22;1399;47.072;15.452;2023-09-19T00:40:19;19.80;99.90
2783;DHT22;1399;47.072;15.452;2023-09-19T00:42:48;19.80;99.90
2783;DHT22;1399;47.072;15.452;2023-09-19T00:45:16;19.80;99.90
2783;DHT22;1399;47.072;15.452;2023-09-19T00:47:48;19.80;99.90
2783;DHT22;1399;47.072;15.452;2023-09-19T00:50:21;19.80;99.90
2783;DHT22;1399;47.072;15.452;2023-09-19T00:52:48;19.40;99.90
2783;DHT22;1399;47.072;15.452;2023-09-19T00:55:16;19.80;99.90
2783;DHT22;1399;47.072;15.452;2023-09-19T00:57:45;19.80;99.90
2783;DHT22;1399;47.072;15.452;2023-09-19T01:00:11;19.80;99.90
2783;DHT22;1399;47.072;15.452;2023-09-19T01:02:43;19.80;99.90
2783;DHT22;1399;47.072;15.452;2023-09-19T01:05:10;19.80;99.90
2783;DHT22;1399;47.072;15.452;2023-09-19T01:07:36;19.80;99.90
2783;DHT22;1399;47.072;15.452;2023-09-19T01:10:11;19.80;99.90
2783;DHT22;1399;47.072;15.452;2023-09-19T01:13:09;19.80;99.90
2783;DHT22;1399;47.072;15.452;2023-09-19T01:28:45;19.70;99.90
2783;DHT22;1399;47.072;15.452;2023-09-19T01:31:21;19.70;99.90
2783;DHT22;1399;47.072;15.452;2023-09-19T01:34:00;19.70;99.90
2783;DHT22;1399;47.072;15.452;2023-09-19T01:36:37;19.70;99.90
2783;DHT22;1399;47.072;15.452;2023-09-19T01:39:13;19.70;99.90
2783;DHT22;1399;47.072;15.452;2023-09-19T01:47:37;19.70;99.90
2783;DHT22;1399;47.072;15.452;2023-09-19T01:52:57;19.70;99.90
2783;DHT22;1399;47.072;15.452;2023-09-19T01:55:27;19.70;99.90
2783;DHT22;1399;47.072;15.452;2023-09-19T02:00:43;19.70;99.90
2783;DHT22;1399;47.072;15.452;2023-09-19T02:03:11;19.60;99.90
2783;DHT22;1399;47.072;15.452;2023-09-19T02:05:38;19.60;99.90
2783;DHT22;1399;47.072;15.452;2023-09-19T02:08:05;19.70;99.90
2783;DHT22;1399;47.072;15.452;2023-09-19T02:10:31;19.70;99.90
2783;DHT22;1399;47.072;15.452;2023-09-19T02:12:56;19.60;99.90
2783;DHT22;1399;47.072;15.452;2023-09-19T02:15:22;19.60;99.90
2783;DHT22;1399;47.072;15.452;2023-09-19T02:17:48;19.60;99.90
2783;DHT22;1399;47.072;15.452;2023-09-19T02:20:14;19.60;99.90
2783;DHT22;1399;47.072;15.452;2023-09-19T02:22:42;19.60;99.90
2783;DHT22;1399;47.072;15.452;2023-09-19T02:25:08;19.60;99.90
2783;DHT22;1399;47.072;15.452;2023-09-19T02:27:34;19.60;99.90
2783;DHT22;1399;47.072;15.452;2023-09-19T02:30:00;19.60;99.90
2783;DHT22;1399;47.072;15.452;2023-09-19T02:32:30;19.60;99.90
2783;DHT22;1399;47.072;15.452;2023-09-19T02:34:57;19.60;99.90
2783;DHT22;1399;47.072;15.452;2023-09-19T02:37:26;19.60;99.90
2783;DHT22;1399;47.072;15.452;2023-09-19T02:39:52;19.60;99.90
2783;DHT22;1399;47.072;15.452;2023-09-19T02:42:17;19.60;99.90
2783;DHT22;1399;47.072;15.452;2023-09-19T02:44:43;19.60;99.90
2783;DHT22;1399;47.072;15.452;2023-09-19T02:47:12;19.60;99.90
2783;DHT22;1399;47.072;15.452;2023-09-19T02:49:40;19.60;99.90
2783;DHT22;1399;47.072;15.452;2023-09-19T02:52:08;19.60;99.90
2783;DHT22;1399;47.072;15.452;2023-09-19T02:54:34;19.60;99.90
2783;DHT22;1399;47.072;15.452;2023-09-19T02:56:59;19.60;99.90
2783;DHT22;1399;47.072;15.452;2023-09-19T02:59:25;19.60;99.90
2783;DHT22;1399;47.072;15.452;2023-09-19T03:01:51;19.60;99.90
2783;DHT22;1399;47.072;15.452;2023-09-19T03:04:18;19.60;99.90
2783;DHT22;1399;47.072;15.452;2023-09-19T03:06:45;19.60;99.90
2783;DHT22;1399;47.072;15.452;2023-09-19T03:09:11;19.60;99.90
2783;DHT22;1399;47.072;15.452;2023-09-19T03:11:38;19.60;99.90
2783;DHT22;1399;47.072;15.452;2023-09-19T03:14:06;19.60;99.90
2783;DHT22;1399;47.072;15.452;2023-09-19T03:16:32;19.60;99.90
2783;DHT22;1399;47.072;15.452;2023-09-19T03:18:59;19.60;99.90
2783;DHT22;1399;47.072;15.452;2023-09-19T03:21:25;19.60;99.90
2783;DHT22;1399;47.072;15.452;2023-09-19T03:23:51;19.60;99.90
2783;DHT22;1399;47.072;15.452;2023-09-19T03:26:17;19.60;99.90
2783;DHT22;1399;47.072;15.452;2023-09-19T03:28:43;19.50;99.90
2783;DHT22;1399;47.072;15.452;2023-09-19T03:31:09;19.60;99.90
2783;DHT22;1399;47.072;15.452;2023-09-19T03:33:36;19.50;99.90
2783;DHT22;1399;47.072;15.452;2023-09-19T03:36:03;19.60;99.90
2783;DHT22;1399;47.072;15.452;2023-09-19T03:38:33;19.50;99.90
2783;DHT22;1399;47.072;15.452;2023-09-19T03:41:00;19.50;99.90
2783;DHT22;1399;47.072;15.452;2023-09-19T03:43:26;19.50;99.90
2783;DHT22;1399;47.072;15.452;2023-09-19T03:45:53;19.50;99.90
2783;DHT22;1399;47.072;15.452;2023-09-19T03:48:20;19.50;99.90
2783;DHT22;1399;47.072;15.452;2023-09-19T03:50:48;19.50;99.90
2783;DHT22;1399;47.072;15.452;2023-09-19T03:53:13;19.50;99.90
2783;DHT22;1399;47.072;15.452;2023-09-19T03:55:39;19.50;99.90
2783;DHT22;1399;47.072;15.452;2023-09-19T03:58:05;19.50;99.90
2783;DHT22;1399;47.072;15.452;2023-09-19T04:00:31;19.50;99.90
2783;DHT22;1399;47.072;15.452;2023-09-19T04:02:57;19.50;99.90
2783;DHT22;1399;47.072;15.452;2023-09-19T04:05:24;19.50;99.90
2783;DHT22;1399;47.072;15.452;2023-09-19T04:07:50;19.50;99.90
2783;DHT22;1399;47.072;15.452;2023-09-19T04:10:15;19.40;99.90
2783;DHT22;1399;47.072;15.452;2023-09-19T04:12:51;19.50;99.90
2783;DHT22;1399;47.072;15.452;2023-09-19T04:15:17;19.50;99.90
2783;DHT22;1399;47.072;15.452;2023-09-19T04:17:43;19.40;99.90
2783;DHT22;1399;47.072;15.452;2023-09-19T04:20:09;19.40;99.90
2783;DHT22;1399;47.072;15.452;2023-09-19T04:22:38;19.40;99.90
2783;DHT22;1399;47.072;15.452;2023-09-19T04:25:05;19.40;99.90
2783;DHT22;1399;47.072;15.452;2023-09-19T04:27:34;19.40;99.90
2783;DHT22;1399;47.072;15.452;2023-09-19T04:30:00;19.40;99.90
2783;DHT22;1399;47.072;15.452;2023-09-19T04:32:34;19.40;99.90
2783;DHT22;1399;47.072;15.452;2023-09-19T04:35:02;19.40;99.90
2783;DHT22;1399;47.072;15.452;2023-09-19T04:37:31;19.40;99.90
2783;DHT22;1399;47.072;15.452;2023-09-19T04:39:57;19.40;99.90
2783;DHT22;1399;47.072;15.452;2023-09-19T04:42:23;19.30;99.90
2783;DHT22;1399;47.072;15.452;2023-09-19T04:44:50;19.40;99.90
2783;DHT22;1399;47.072;15.452;2023-09-19T04:47:19;19.30;99.90
2783;DHT22;1399;47.072;15.452;2023-09-19T04:49:46;19.30;99.90
2783;DHT22;1399;47.072;15.452;2023-09-19T04:52:12;19.30;99.90
2783;DHT22;1399;47.072;15.452;2023-09-19T04:54:40;19.30;99.90
2783;DHT22;1399;47.072;15.452;2023-09-19T04:57:07;19.30;99.90
2783;DHT22;1399;47.072;15.452;2023-09-19T04:59:32;19.30;99.90
2783;DHT22;1399;47.072;15.452;2023-09-19T05:01:58;19.30;99.90
2783;DHT22;1399;47.072;15.452;2023-09-19T05:04:24;19.30;99.90
2783;DHT22;1399;47.072;15.452;2023-09-19T05:06:50;19.30;99.90
2783;DHT22;1399;47.072;15.452;2023-09-19T05:09:16;19.30;99.90
2783;DHT22;1399;47.072;15.452;2023-09-19T05:11:45;19.30;99.90
2783;DHT22;1399;47.072;15.452;2023-09-19T05:14:12;19.20;99.90
2783;DHT22;1399;47.072;15.452;2023-09-19T05:16:37;19.20;99.90
2783;DHT22;1399;47.072;15.452;2023-09-19T05:19:03;19.20;99.90
2783;DHT22;1399;47.072;15.452;2023-09-19T05:21:30;19.20;99.90
2783;DHT22;1399;47.072;15.452;2023-09-19T05:23:56;19.20;99.90
2783;DHT22;1399;47.072;15.452;2023-09-19T05:26:22;19.20;99.90
2783;DHT22;1399;47.072;15.452;2023-09-19T05:28:48;19.20;99.90
2783;DHT22;1399;47.072;15.452;2023-09-19T05:31:14;19.20;99.90
2783;DHT22;1399;47.072;15.452;2023-09-19T05:33:40;19.20;99.90
2783;DHT22;1399;47.072;15.452;2023-09-19T05:36:06;19.20;99.90
2783;DHT22;1399;47.072;15.452;2023-09-19T05:38:35;19.20;99.90
2783;DHT22;1399;47.072;15.452;2023-09-19T05:41:01;19.20;99.90
2783;DHT22;1399;47.072;15.452;2023-09-19T05:43:27;19.20;99.90
2783;DHT22;1399;47.072;15.452;2023-09-19T05:45:53;19.30;99.90
2783;DHT22;1399;47.072;15.452;2023-09-19T05:48:22;19.20;99.90
2783;DHT22;1399;47.072;15.452;2023-09-19T05:50:47;19.30;99.90
2783;DHT22;1399;47.072;15.452;2023-09-19T05:53:14;19.30;99.90
2783;DHT22;1399;47.072;15.452;2023-09-19T05:55:41;19.30;99.90
2783;DHT22;1399;47.072;15.452;2023-09-19T05:58:07;19.30;99.90
2783;DHT22;1399;47.072;15.452;2023-09-19T06:00:34;19.30;99.90
2783;DHT22;1399;47.072;15.452;2023-09-19T06:03:00;19.30;99.90
2783;DHT22;1399;47.072;15.452;2023-09-19T06:05:26;19.40;99.90
2783;DHT22;1399;47.072;15.452;2023-09-19T06:07:53;19.40;99.90
2783;DHT22;1399;47.072;15.452;2023-09-19T06:10:20;19.40;99.90
2783;DHT22;1399;47.072;15.452;2023-09-19T06:12:49;19.40;99.90
2783;DHT22;1399;47.072;15.452;2023-09-19T06:15:16;19.50;99.90
2783;DHT22;1399;47.072;15.452;2023-09-19T06:17:53;19.50;99.90
2783;DHT22;1399;47.072;15.452;2023-09-19T06:20:23;19.50;99.90
2783;DHT22;1399;47.072;15.452;2023-09-19T06:22:49;19.60;99.90
2783;DHT22;1399;47.072;15.452;2023-09-19T06:25:16;19.60;99.90
2783;DHT22;1399;47.072;15.452;2023-09-19T06:27:48;19.60;99.90
2783;DHT22;1399;47.072;15.452;2023-09-19T06:30:18;19.60;99.90
2783;DHT22;1399;47.072;15.452;2023-09-19T06:32:44;19.70;99.90
2783;DHT22;1399;47.072;15.452;2023-09-19T06:35:14;19.60;99.90
2783;DHT22;1399;47.072;15.452;2023-09-19T06:37:41;19.70;99.90
2783;DHT22;1399;47.072;15.452;2023-09-19T06:40:12;19.70;99.90
2783;DHT22;1399;47.072;15.452;2023-09-19T06:42:47;19.60;99.90
2783;DHT22;1399;47.072;15.452;2023-09-19T06:45:15;19.60;99.90
2783;DHT22;1399;47.072;15.452;2023-09-19T06:47:45;19.70;99.90
2783;DHT22;1399;47.072;15.452;2023-09-19T06:50:15;19.70;99.90
2783;DHT22;1399;47.072;15.452;2023-09-19T06:52:41;19.70;99.90
2783;DHT22;1399;47.072;15.452;2023-09-19T06:55:07;19.70;99.90
2783;DHT22;1399;47.072;15.452;2023-09-19T06:57:35;19.80;99.90
2783;DHT22;1399;47.072;15.452;2023-09-19T07:00:01;19.80;99.90
2783;DHT22;1399;47.072;15.452;2023-09-19T07:02:27;19.80;99.90
2783;DHT22;1399;47.072;15.452;2023-09-19T07:04:53;19.90;99.90
2783;DHT22;1399;47.072;15.452;2023-09-19T07:07:19;20.00;99.90
2783;DHT22;1399;47.072;15.452;2023-09-19T07:09:45;20.00;99.90
2783;DHT22;1399;47.072;15.452;2023-09-19T07:12:11;20.10;99.90
2783;DHT22;1399;47.072;15.452;2023-09-19T07:14:37;20.10;99.90
2783;DHT22;1399;47.072;15.452;2023-09-19T07:17:03;20.20;99.90
2783;DHT22;1399;47.072;15.452;2023-09-19T07:19:29;20.20;99.90
2783;DHT22;1399;47.072;15.452;2023-09-19T07:21:56;20.20;99.80
2783;DHT22;1399;47.072;15.452;2023-09-19T07:24:24;20.20;99.80
2783;DHT22;1399;47.072;15.452;2023-09-19T07:26:52;20.20;99.70
2783;DHT22;1399;47.072;15.452;2023-09-19T07:29:18;20.20;99.70
2783;DHT22;1399;47.072;15.452;2023-09-19T07:31:44;20.30;99.80
2783;DHT22;1399;47.072;15.452;2023-09-19T07:34:10;20.30;99.80
2783;DHT22;1399;47.072;15.452;2023-09-19T07:36:35;20.30;99.70
2783;DHT22;1399;47.072;15.452;2023-09-19T07:39:03;20.30;99.60
2783;DHT22;1399;47.072;15.452;2023-09-19T07:41:32;20.30;99.60
2783;DHT22;1399;47.072;15.452;2023-09-19T07:43:58;20.40;99.50
2783;DHT22;1399;47.072;15.452;2023-09-19T07:46:24;20.40;99.30
2783;DHT22;1399;47.072;15.452;2023-09-19T07:48:51;20.40;99.20
2783;DHT22;1399;47.072;15.452;2023-09-19T07:51:17;20.50;99.20
2783;DHT22;1399;47.072;15.452;2023-09-19T07:53:43;20.50;99.10
2783;DHT22;1399;47.072;15.452;2023-09-19T07:56:10;20.50;99.00
2783;DHT22;1399;47.072;15.452;2023-09-19T07:58:39;20.50;99.00
2783;DHT22;1399;47.072;15.452;2023-09-19T08:01:07;20.50;98.90
2783;DHT22;1399;47.072;15.452;2023-09-19T08:03:34;20.50;98.90
2783;DHT22;1399;47.072;15.452;2023-09-19T08:06:00;20.60;98.80
2783;DHT22;1399;47.072;15.452;2023-09-19T08:08:27;20.70;98.60
2783;DHT22;1399;47.072;15.452;2023-09-19T08:10:56;20.80;98.40
2783;DHT22;1399;47.072;15.452;2023-09-19T08:13:26;20.80;98.10
2783;DHT22;1399;47.072;15.452;2023-09-19T08:15:52;20.90;97.90
2783;DHT22;1399;47.072;15.452;2023-09-19T08:18:21;21.00;98.20
2783;DHT22;1399;47.072;15.452;2023-09-19T08:20:52;21.00;97.60
2783;DHT22;1399;47.072;15.452;2023-09-19T08:23:19;21.00;97.50
2783;DHT22;1399;47.072;15.452;2023-09-19T08:25:47;21.00;97.40
2783;DHT22;1399;47.072;15.452;2023-09-19T08:28:13;21.10;97.30
2783;DHT22;1399;47.072;15.452;2023-09-19T08:30:45;21.10;97.20
2783;DHT22;1399;47.072;15.452;2023-09-19T08:33:11;21.10;97.00
2783;DHT22;1399;47.072;15.452;2023-09-19T08:35:37;21.10;97.00
2783;DHT22;1399;47.072;15.452;2023-09-19T08:38:05;21.10;97.00
2783;DHT22;1399;47.072;15.452;2023-09-19T08:40:32;21.10;96.90
2783;DHT22;1399;47.072;15.452;2023-09-19T08:43:02;21.10;96.90
2783;DHT22;1399;47.072;15.452;2023-09-19T08:45:28;21.10;96.90
2783;DHT22;1399;47.072;15.452;2023-09-19T08:50:31;21.20;96.90
2783;DHT22;1399;47.072;15.452;2023-09-19T08:53:10;21.20;96.80
2783;DHT22;1399;47.072;15.452;2023-09-19T08:55:40;21.30;96.70
2783;DHT22;1399;47.072;15.452;2023-09-19T08:58:09;21.30;96.60
2783;DHT22;1399;47.072;15.452;2023-09-19T09:00:36;21.30;96.50
2783;DHT22;1399;47.072;15.452;2023-09-19T09:03:03;21.30;96.50
2783;DHT22;1399;47.072;15.452;2023-09-19T09:05:33;21.30;96.50
2783;DHT22;1399;47.072;15.452;2023-09-19T09:08:02;21.30;96.50
2783;DHT22;1399;47.072;15.452;2023-09-19T09:10:31;21.30;96.50
2783;DHT22;1399;47.072;15.452;2023-09-19T09:12:58;21.30;96.50
2783;DHT22;1399;47.072;15.452;2023-09-19T09:15:24;21.30;96.40
2783;DHT22;1399;47.072;15.452;2023-09-19T09:17:51;21.40;96.40
2783;DHT22;1399;47.072;15.452;2023-09-19T09:20:20;21.40;96.30
2783;DHT22;1399;47.072;15.452;2023-09-19T09:22:53;21.50;96.30
2783;DHT22;1399;47.072;15.452;2023-09-19T09:25:20;21.60;96.20
2783;DHT22;1399;47.072;15.452;2023-09-19T09:28:01;21.60;96.10
2783;DHT22;1399;47.072;15.452;2023-09-19T09:30:37;21.70;96.00
2783;DHT22;1399;47.072;15.452;2023-09-19T09:33:11;21.70;95.80
2783;DHT22;1399;47.072;15.452;2023-09-19T09:35:58;21.80;95.70
2783;DHT22;1399;47.072;15.452;2023-09-19T09:38:29;21.80;95.60
2783;DHT22;1399;47.072;15.452;2023-09-19T09:40:57;21.90;95.40
2783;DHT22;1399;47.072;15.452;2023-09-19T09:43:34;22.00;95.70
2783;DHT22;1399;47.072;15.452;2023-09-19T09:51:50;22.10;95.00
2783;DHT22;1399;47.072;15.452;2023-09-19T09:54:31;22.10;94.90
2783;DHT22;1399;47.072;15.452;2023-09-19T09:57:08;22.20;94.90
2783;DHT22;1399;47.072;15.452;2023-09-19T09:59:55;22.20;94.80
2783;DHT22;1399;47.072;15.452;2023-09-19T10:02:29;22.10;94.70
2783;DHT22;1399;47.072;15.452;2023-09-19T10:04:59;22.10;94.70
2783;DHT22;1399;47.072;15.452;2023-09-19T10:07:32;22.10;94.70
2783;DHT22;1399;47.072;15.452;2023-09-19T10:10:02;22.10;94.80
2783;DHT22;1399;47.072;15.452;2023-09-19T10:12:48;22.10;94.80
2783;DHT22;1399;47.072;15.452;2023-09-19T10:15:18;22.10;94.80
2783;DHT22;1399;47.072;15.452;2023-09-19T10:17:52;22.10;94.80
2783;DHT22;1399;47.072;15.452;2023-09-19T10:20:24;22.10;94.80
2783;DHT22;1399;47.072;15.452;2023-09-19T10:23:08;22.10;94.80
2783;DHT22;1399;47.072;15.452;2023-09-19T10:25:38;22.10;94.80
2783;DHT22;1399;47.072;15.452;2023-09-19T10:28:09;22.10;94.80
2783;DHT22;1399;47.072;15.452;2023-09-19T10:30:42;22.10;94.90
2783;DHT22;1399;47.072;15.452;2023-09-19T10:33:13;22.10;94.90
2783;DHT22;1399;47.072;15.452;2023-09-19T10:35:42;22.10;94.90
2783;DHT22;1399;47.072;15.452;2023-09-19T10:38:13;22.10;94.90
2783;DHT22;1399;47.072;15.452;2023-09-19T10:40:40;22.10;94.90
2783;DHT22;1399;47.072;15.452;2023-09-19T10:43:17;22.10;94.80
2783;DHT22;1399;47.072;15.452;2023-09-19T10:45:48;22.10;94.80
2783;DHT22;1399;47.072;15.452;2023-09-19T10:48:19;22.10;94.80
2783;DHT22;1399;47.072;15.452;2023-09-19T10:53:14;22.20;94.90
2783;DHT22;1399;47.072;15.452;2023-09-19T10:55:49;22.20;94.80
2783;DHT22;1399;47.072;15.452;2023-09-19T10:58:26;22.30;94.70
2783;DHT22;1399;47.072;15.452;2023-09-19T11:00:56;22.30;94.60
2783;DHT22;1399;47.072;15.452;2023-09-19T11:03:23;22.30;94.60
2783;DHT22;1399;47.072;15.452;2023-09-19T11:06:07;22.20;94.60
2783;DHT22;1399;47.072;15.452;2023-09-19T11:14:40;22.20;94.60
2783;DHT22;1399;47.072;15.452;2023-09-19T11:30:45;22.30;94.60
2783;DHT22;1399;47.072;15.452;2023-09-19T11:36:13;22.30;94.60
2783;DHT22;1399;47.072;15.452;2023-09-19T11:49:26;22.30;94.50
2783;DHT22;1399;47.072;15.452;2023-09-19T11:51:56;22.30;94.50
2783;DHT22;1399;47.072;15.452;2023-09-19T11:54:23;22.30;94.40
2783;DHT22;1399;47.072;15.452;2023-09-19T11:56:54;22.30;94.50
2783;DHT22;1399;47.072;15.452;2023-09-19T11:59:22;22.20;94.40
2783;DHT22;1399;47.072;15.452;2023-09-19T12:01:53;22.20;94.40
2783;DHT22;1399;47.072;15.452;2023-09-19T12:04:53;22.20;94.40
2783;DHT22;1399;47.072;15.452;2023-09-19T12:07:19;22.30;94.50
2783;DHT22;1399;47.072;15.452;2023-09-19T12:09:48;22.20;94.40
2783;DHT22;1399;47.072;15.452;2023-09-19T12:12:25;22.30;94.40
2783;DHT22;1399;47.072;15.452;2023-09-19T12:14:55;22.30;94.40
2783;DHT22;1399;47.072;15.452;2023-09-19T12:20:03;22.30;94.20
2783;DHT22;1399;47.072;15.452;2023-09-19T12:22:43;22.30;94.10
2783;DHT22;1399;47.072;15.452;2023-09-19T12:25:10;22.30;94.10
2783;DHT22;1399;47.072;15.452;2023-09-19T12:27:48;22.30;94.00
2783;DHT22;1399;47.072;15.452;2023-09-19T12:30:16;22.30;93.90
2783;DHT22;1399;47.072;15.452;2023-09-19T12:32:46;22.30;93.90
2783;DHT22;1399;47.072;15.452;2023-09-19T12:35:28;22.30;93.90
2783;DHT22;1399;47.072;15.452;2023-09-19T12:37:56;22.30;94.00
2783;DHT22;1399;47.072;15.452;2023-09-19T12:40:23;22.30;94.00
2783;DHT22;1399;47.072;15.452;2023-09-19T12:42:56;22.40;93.90
2783;DHT22;1399;47.072;15.452;2023-09-19T12:45:24;22.40;93.90
2783;DHT22;1399;47.072;15.452;2023-09-19T12:48:21;22.40;93.90
2783;DHT22;1399;47.072;15.452;2023-09-19T12:51:05;22.40;93.90
2783;DHT22;1399;47.072;15.452;2023-09-19T12:53:41;22.40;93.80
2783;DHT22;1399;47.072;15.452;2023-09-19T12:56:13;22.40;93.70
2783;DHT22;1399;47.072;15.452;2023-09-19T12:58:52;22.40;93.50
2783;DHT22;1399;47.072;15.452;2023-09-19T13:01:24;22.50;93.50
2783;DHT22;1399;47.072;15.452;2023-09-19T13:06:58;22.60;93.20
2783;DHT22;1399;47.072;15.452;2023-09-19T13:09:27;22.60;93.00
2783;DHT22;1399;47.072;15.452;2023-09-19T13:12:04;22.60;92.80
2783;DHT22;1399;47.072;15.452;2023-09-19T13:14:32;22.70;92.80
2783;DHT22;1399;47.072;15.452;2023-09-19T13:17:06;22.70;92.70
2783;DHT22;1399;47.072;15.452;2023-09-19T13:19:51;22.70;92.60
2783;DHT22;1399;47.072;15.452;2023-09-19T13:22:42;22.70;92.70
2783;DHT22;1399;47.072;15.452;2023-09-19T13:25:15;22.60;92.80
2783;DHT22;1399;47.072;15.452;2023-09-19T13:27:49;22.60;92.90
2783;DHT22;1399;47.072;15.452;2023-09-19T13:30:20;22.50;92.90
2783;DHT22;1399;47.072;15.452;2023-09-19T13:32:47;22.50;93.00
2783;DHT22;1399;47.072;15.452;2023-09-19T13:35:14;22.50;93.10
2783;DHT22;1399;47.072;15.452;2023-09-19T13:37:41;22.40;93.00
2783;DHT22;1399;47.072;15.452;2023-09-19T13:40:13;22.50;93.10
2783;DHT22;1399;47.072;15.452;2023-09-19T13:42:40;22.50;93.00
2783;DHT22;1399;47.072;15.452;2023-09-19T13:45:07;22.50;93.00
2783;DHT22;1399;47.072;15.452;2023-09-19T13:47:35;22.50;93.00
2783;DHT22;1399;47.072;15.452;2023-09-19T13:50:04;22.50;93.00
2783;DHT22;1399;47.072;15.452;2023-09-19T13:52:31;22.50;92.90
2783;DHT22;1399;47.072;15.452;2023-09-19T13:54:58;22.50;92.90
2783;DHT22;1399;47.072;15.452;2023-09-19T13:57:27;22.50;92.90
2783;DHT22;1399;47.072;15.452;2023-09-19T13:59:55;22.50;92.90
2783;DHT22;1399;47.072;15.452;2023-09-19T14:02:22;22.40;92.90
2783;DHT22;1399;47.072;15.452;2023-09-19T14:04:51;22.50;93.00
2783;DHT22;1399;47.072;15.452;2023-09-19T14:07:17;22.40;93.00
2783;DHT22;1399;47.072;15.452;2023-09-19T14:09:46;22.40;93.00
2783;DHT22;1399;47.072;15.452;2023-09-19T14:12:12;22.40;93.30
2783;DHT22;1399;47.072;15.452;2023-09-19T14:14:38;22.40;92.90
2783;DHT22;1399;47.072;15.452;2023-09-19T14:17:05;22.50;92.90
2783;DHT22;1399;47.072;15.452;2023-09-19T14:19:35;22.50;92.90
2783;DHT22;1399;47.072;15.452;2023-09-19T14:22:02;22.50;92.80
2783;DHT22;1399;47.072;15.452;2023-09-19T14:24:33;22.50;92.90
2783;DHT22;1399;47.072;15.452;2023-09-19T14:26:59;22.50;92.90
2783;DHT22;1399;47.072;15.452;2023-09-19T14:29:25;22.50;92.80
2783;DHT22;1399;47.072;15.452;2023-09-19T14:31:51;22.50;92.80
2783;DHT22;1399;47.072;15.452;2023-09-19T14:34:18;22.50;92.70
2783;DHT22;1399;47.072;15.452;2023-09-19T14:36:45;22.50;92.70
2783;DHT22;1399;47.072;15.452;2023-09-19T14:39:11;22.50;92.70
2783;DHT22;1399;47.072;15.452;2023-09-19T14:41:37;22.60;92.90
2783;DHT22;1399;47.072;15.452;2023-09-19T14:44:04;22.60;92.60
2783;DHT22;1399;47.072;15.452;2023-09-19T14:46:30;22.60;92.60
2783;DHT22;1399;47.072;15.452;2023-09-19T14:48:57;22.60;92.60
2783;DHT22;1399;47.072;15.452;2023-09-19T14:51:29;22.60;92.60
2783;DHT22;1399;47.072;15.452;2023-09-19T14:53:56;22.50;92.60
2783;DHT22;1399;47.072;15.452;2023-09-19T14:56:22;22.50;92.60
2783;DHT22;1399;47.072;15.452;2023-09-19T14:58:50;22.40;92.60
2783;DHT22;1399;47.072;15.452;2023-09-19T15:01:16;22.40;92.70
2783;DHT22;1399;47.072;15.452;2023-09-19T15:03:43;22.40;92.80
2783;DHT22;1399;47.072;15.452;2023-09-19T15:06:11;22.40;92.90
2783;DHT22;1399;47.072;15.452;2023-09-19T15:08:45;22.40;92.90
2783;DHT22;1399;47.072;15.452;2023-09-19T15:11:16;22.30;93.00
2783;DHT22;1399;47.072;15.452;2023-09-19T15:13:44;22.30;93.00
2783;DHT22;1399;47.072;15.452;2023-09-19T15:16:11;22.30;93.10
2783;DHT22;1399;47.072;15.452;2023-09-19T15:18:40;22.30;93.10
2783;DHT22;1399;47.072;15.452;2023-09-19T15:21:08;22.30;93.10
2783;DHT22;1399;47.072;15.452;2023-09-19T15:23:37;22.30;93.10
2783;DHT22;1399;47.072;15.452;2023-09-19T15:26:05;22.30;93.20
2783;DHT22;1399;47.072;15.452;2023-09-19T15:28:32;22.30;93.20
2783;DHT22;1399;47.072;15.452;2023-09-19T15:31:06;22.30;93.20
2783;DHT22;1399;47.072;15.452;2023-09-19T15:33:33;22.20;93.10
2783;DHT22;1399;47.072;15.452;2023-09-19T15:36:07;22.20;93.10
2783;DHT22;1399;47.072;15.452;2023-09-19T15:39:00;22.30;93.20
2783;DHT22;1399;47.072;15.452;2023-09-19T15:41:36;22.30;93.10
2783;DHT22;1399;47.072;15.452;2023-09-19T15:44:11;22.30;93.10
2783;DHT22;1399;47.072;15.452;2023-09-19T15:46:38;22.30;93.10
2783;DHT22;1399;47.072;15.452;2023-09-19T15:49:04;22.30;93.10
2783;DHT22;1399;47.072;15.452;2023-09-19T15:51:31;22.30;93.10
2783;DHT22;1399;47.072;15.452;2023-09-19T15:53:58;22.30;93.10
2783;DHT22;1399;47.072;15.452;2023-09-19T15:56:26;22.20;93.00
2783;DHT22;1399;47.072;15.452;2023-09-19T15:58:54;22.20;93.10
2783;DHT22;1399;47.072;15.452;2023-09-19T16:01:21;22.20;93.10
2783;DHT22;1399;47.072;15.452;2023-09-19T16:03:52;22.20;93.10
2783;DHT22;1399;47.072;15.452;2023-09-19T16:06:24;22.20;93.20
2783;DHT22;1399;47.072;15.452;2023-09-19T16:08:54;22.10;93.10
2783;DHT22;1399;47.072;15.452;2023-09-19T16:11:22;22.10;93.20
2783;DHT22;1399;47.072;15.452;2023-09-19T16:13:50;22.10;93.20
2783;DHT22;1399;47.072;15.452;2023-09-19T16:16:18;22.10;93.20
2783;DHT22;1399;47.072;15.452;2023-09-19T16:18:50;22.10;93.20
2783;DHT22;1399;47.072;15.452;2023-09-19T16:21:17;22.10;93.30
2783;DHT22;1399;47.072;15.452;2023-09-19T16:23:49;22.00;93.20
2783;DHT22;1399;47.072;15.452;2023-09-19T16:26:16;22.00;93.30
2783;DHT22;1399;47.072;15.452;2023-09-19T16:28:45;22.00;93.30
2783;DHT22;1399;47.072;15.452;2023-09-19T16:31:11;22.00;93.30
2783;DHT22;1399;47.072;15.452;2023-09-19T16:33:39;21.90;93.40
2783;DHT22;1399;47.072;15.452;2023-09-19T16:36:10;21.90;93.40
2783;DHT22;1399;47.072;15.452;2023-09-19T16:38:37;21.90;93.40
2783;DHT22;1399;47.072;15.452;2023-09-19T16:41:04;21.80;93.40
2783;DHT22;1399;47.072;15.452;2023-09-19T16:43:31;21.80;93.50
2783;DHT22;1399;47.072;15.452;2023-09-19T16:46:02;21.80;93.60
2783;DHT22;1399;47.072;15.452;2023-09-19T16:48:29;21.80;93.60
2783;DHT22;1399;47.072;15.452;2023-09-19T16:51:09;21.80;93.70
2783;DHT22;1399;47.072;15.452;2023-09-19T16:53:37;21.70;93.70
2783;DHT22;1399;47.072;15.452;2023-09-19T16:56:08;21.70;93.70
2783;DHT22;1399;47.072;15.452;2023-09-19T16:58:41;21.60;93.70
2783;DHT22;1399;47.072;15.452;2023-09-19T17:01:08;21.60;93.80
2783;DHT22;1399;47.072;15.452;2023-09-19T17:03:38;21.60;93.80
2783;DHT22;1399;47.072;15.452;2023-09-19T17:06:12;21.50;93.80
2783;DHT22;1399;47.072;15.452;2023-09-19T17:08:41;21.50;94.30
2783;DHT22;1399;47.072;15.452;2023-09-19T17:11:11;21.50;93.90